Time;durP1;ratioP1;P1;durP2;ratioP2;P2;SDS_P1;SDS_P2;PMS_P1;PMS_P2;Temp;Humidity;BMP_temperature;BMP_pressure;BME280_temperature;BME280_humidity;BME280_pressure;Samples;Min_cycle;Max_cycle;Signal;HPM_P1;HPM_P2
2021/04/26 00:00:45;;;;;;;0.25;0.25;;;4.30;85.00;;;;;;4431937;32;20116;-60
2021/04/26 00:03:11;;;;;;;0.65;0.65;;;4.30;84.90;;;;;;4431822;32;20306;-59
2021/04/26 00:05:36;;;;;;;0.40;0.40;;;4.10;85.60;;;;;;4431432;32;20086;-59
2021/04/26 00:08:03;;;;;;;0.30;0.30;;;3.90;87.00;;;;;;4431877;32;20128;-60
2021/04/26 00:10:29;;;;;;;0.30;0.30;;;4.00;86.10;;;;;;4418089;32;20068;-58
2021/04/26 00:12:55;;;;;;;0.20;0.20;;;3.70;87.90;;;;;;4417307;32;20108;-59
2021/04/26 00:15:24;;;;;;;0.30;0.30;;;3.70;88.80;;;;;;4417096;32;20065;-59
2021/04/26 00:17:50;;;;;;;0.20;0.20;;;3.90;88.70;;;;;;4416908;32;20085;-59
2021/04/26 00:20:18;;;;;;;0.40;0.40;;;3.80;88.40;;;;;;4416933;32;20065;-59
2021/04/26 00:22:44;;;;;;;0.30;0.30;;;3.70;87.70;;;;;;4417031;32;20069;-58
2021/04/26 00:25:11;;;;;;;0.30;0.30;;;3.60;88.20;;;;;;4413081;32;20606;-58
2021/04/26 00:27:37;;;;;;;0.30;0.30;;;3.50;88.40;;;;;;4417204;32;20142;-59
2021/04/26 00:30:05;;;;;;;0.30;0.30;;;3.50;89.10;;;;;;4405382;32;20424;-58
2021/04/26 00:32:30;;;;;;;0.30;0.30;;;3.70;89.10;;;;;;4415770;32;20654;-58
2021/04/26 00:34:56;;;;;;;0.32;0.32;;;3.70;88.70;;;;;;4414454;32;20073;-60
2021/04/26 00:37:21;;;;;;;0.60;0.60;;;3.50;89.40;;;;;;4414734;32;20527;-59
2021/04/26 00:39:47;;;;;;;0.20;0.20;;;3.30;90.40;;;;;;4400936;32;20074;-59
2021/04/26 00:42:12;;;;;;;0.45;0.45;;;3.40;90.20;;;;;;4415675;32;20077;-58
2021/04/26 00:44:38;;;;;;;0.30;0.30;;;3.50;89.70;;;;;;4415792;32;20514;-59
2021/04/26 00:47:04;;;;;;;0.60;0.60;;;3.50;90.20;;;;;;4416069;32;20105;-58
2021/04/26 00:49:29;;;;;;;0.50;0.50;;;3.30;90.70;;;;;;4402364;32;20074;-61
2021/04/26 00:51:55;;;;;;;0.40;0.40;;;3.30;90.50;;;;;;4415478;32;20077;-59
2021/04/26 00:54:20;;;;;;;0.30;0.30;;;3.10;91.00;;;;;;4401082;32;20066;-59
2021/04/26 00:56:46;;;;;;;0.40;0.40;;;3.30;90.90;;;;;;4415631;32;20139;-59
2021/04/26 00:59:12;;;;;;;0.30;0.30;;;3.10;90.90;;;;;;4415366;32;20081;-59
2021/04/26 01:01:37;;;;;;;0.43;0.43;;;3.10;91.70;;;;;;4414794;32;20069;-59
2021/04/26 01:04:03;;;;;;;0.50;0.50;;;3.10;91.60;;;;;;4402011;32;20118;-56
2021/04/26 01:06:29;;;;;;;0.40;0.40;;;3.00;91.80;;;;;;4389205;32;20760;-59
2021/04/26 01:08:54;;;;;;;0.40;0.40;;;3.10;91.90;;;;;;4402201;32;20142;-59
2021/04/26 01:11:25;;;;;;;0.40;0.40;;;3.10;92.00;;;;;;4416162;32;20065;-59
2021/04/26 01:14:09;;;;;;;0.40;0.40;;;3.20;91.50;;;;;;4402552;32;20409;-59
2021/04/26 01:16:56;;;;;;;0.30;0.30;;;3.30;91.00;;;;;;4415986;32;20452;-59
2021/04/26 01:20:02;;;;;;;0.40;0.40;;;3.20;91.20;;;;;;4402217;32;20504;-59
2021/04/26 01:23:07;;;;;;;0.73;0.73;;;3.30;90.90;;;;;;4395635;32;20077;-58
2021/04/26 01:25:34;;;;;;;0.30;0.30;;;3.30;91.60;;;;;;4400334;32;20082;-59
2021/04/26 01:28:28;;;;;;;0.82;0.82;;;3.20;91.80;;;;;;4429342;32;20069;-58
2021/04/26 01:31:02;;;;;;;0.50;0.50;;;3.30;91.80;;;;;;4415635;32;20066;-58
2021/04/26 01:33:30;;;;;;;0.40;0.40;;;3.10;92.40;;;;;;4415366;32;20060;-58
2021/04/26 01:36:00;;;;;;;0.30;0.30;;;2.70;93.30;;;;;;4416998;32;20123;-59
2021/04/26 01:38:31;;;;;;;0.30;0.30;;;2.50;94.10;;;;;;4429132;32;20070;-57
2021/04/26 01:40:58;;;;;;;0.68;0.37;;;2.50;94.20;;;;;;4429831;32;20069;-59
2021/04/26 01:43:26;;;;;;;0.25;0.25;;;2.40;94.70;;;;;;4430129;32;20191;-55
2021/04/26 01:45:54;;;;;;;0.30;0.30;;;2.30;94.90;;;;;;4417380;32;20505;-59
2021/04/26 01:48:20;;;;;;;0.50;0.50;;;2.30;94.80;;;;;;4430702;32;20545;-59
2021/04/26 01:50:47;;;;;;;0.30;0.30;;;2.30;94.60;;;;;;4429732;32;20080;-58
2021/04/26 01:53:14;;;;;;;0.30;0.30;;;2.30;94.70;;;;;;4429486;32;20343;-59
2021/04/26 01:55:40;;;;;;;0.30;0.30;;;2.30;94.20;;;;;;4417524;32;20054;-58
2021/04/26 01:58:06;;;;;;;0.60;0.60;;;2.30;94.20;;;;;;4429179;32;20559;-59
2021/04/26 02:00:34;;;;;;;0.40;0.40;;;2.40;93.90;;;;;;4430897;32;20073;-58
2021/04/26 02:03:01;;;;;;;0.40;0.40;;;2.50;94.00;;;;;;4429832;32;20061;-60
2021/04/26 02:05:28;;;;;;;0.30;0.30;;;2.60;93.50;;;;;;4429823;32;20073;-58
2021/04/26 02:07:55;;;;;;;0.40;0.40;;;2.60;93.30;;;;;;4416054;32;20069;-57
2021/04/26 02:10:24;;;;;;;0.30;0.30;;;2.60;93.60;;;;;;4430813;32;20065;-59
2021/04/26 02:12:50;;;;;;;0.30;0.30;;;2.60;93.30;;;;;;4403778;32;20064;-60
2021/04/26 02:15:19;;;;;;;0.30;0.30;;;2.70;93.20;;;;;;4402696;32;20575;-60
2021/04/26 02:17:45;;;;;;;0.35;0.35;;;2.80;93.20;;;;;;4415935;32;20064;-60
2021/04/26 02:20:13;;;;;;;0.40;0.40;;;2.70;93.10;;;;;;4428125;32;20287;-60
2021/04/26 02:22:39;;;;;;;0.30;0.30;;;2.80;93.40;;;;;;4429216;32;20070;-61
2021/04/26 02:25:07;;;;;;;0.30;0.30;;;2.80;93.10;;;;;;4413133;32;20112;-60
2021/04/26 02:27:32;;;;;;;0.28;0.28;;;2.70;92.80;;;;;;4413184;32;20145;-60
2021/04/26 02:29:58;;;;;;;0.30;0.30;;;2.70;93.00;;;;;;4419126;32;20098;-57
2021/04/26 02:32:31;;;;;;;0.30;0.30;;;2.80;92.70;;;;;;4426817;32;20078;-61
2021/04/26 02:34:59;;;;;;;0.30;0.30;;;2.80;92.80;;;;;;4414589;32;20073;-61
2021/04/26 02:37:31;;;;;;;0.30;0.30;;;2.70;93.50;;;;;;4415135;32;20468;-59
2021/04/26 02:40:03;;;;;;;0.32;0.32;;;2.70;93.30;;;;;;4429759;32;20061;-57
2021/04/26 02:42:32;;;;;;;0.20;0.20;;;2.70;93.30;;;;;;4429132;32;20533;-58
2021/04/26 02:44:58;;;;;;;1.35;0.93;;;2.80;93.30;;;;;;4429906;32;20127;-60
2021/04/26 02:47:27;;;;;;;0.30;0.30;;;2.80;93.10;;;;;;4415133;32;20412;-59
2021/04/26 02:49:53;;;;;;;0.35;0.35;;;2.70;93.70;;;;;;4429815;32;20525;-60
2021/04/26 02:52:19;;;;;;;0.30;0.30;;;2.60;93.80;;;;;;4430794;32;20065;-60
2021/04/26 02:54:48;;;;;;;0.30;0.30;;;2.50;94.30;;;;;;4431505;32;20455;-59
2021/04/26 02:57:14;;;;;;;0.40;0.40;;;2.50;94.70;;;;;;4432198;32;20096;-59
2021/04/26 02:59:40;;;;;;;0.30;0.30;;;2.60;94.70;;;;;;4432309;32;20064;-59
2021/04/26 03:02:06;;;;;;;0.55;0.55;;;2.60;93.60;;;;;;4432095;32;20131;-59
2021/04/26 03:04:33;;;;;;;0.37;0.37;;;2.80;93.60;;;;;;4417374;32;20066;-57
2021/04/26 03:07:01;;;;;;;0.35;0.35;;;2.80;93.40;;;;;;4432029;32;20407;-58
2021/04/26 03:09:29;;;;;;;0.85;0.68;;;2.70;93.10;;;;;;4432359;32;20061;-59
2021/04/26 03:11:55;;;;;;;0.32;0.32;;;2.60;93.00;;;;;;4421560;32;20066;-58
2021/04/26 03:14:23;;;;;;;0.40;0.40;;;2.60;93.10;;;;;;4401916;32;20065;-59
2021/04/26 03:16:51;;;;;;;0.30;0.30;;;2.60;93.20;;;;;;4416370;32;20478;-60
2021/04/26 03:19:17;;;;;;;0.30;0.30;;;2.50;93.70;;;;;;4403172;32;20128;-59
2021/04/26 03:21:45;;;;;;;0.40;0.40;;;2.50;93.90;;;;;;4401184;32;20078;-56
2021/04/26 03:24:14;;;;;;;0.30;0.30;;;2.40;94.40;;;;;;4403299;32;20066;-57
2021/04/26 03:26:40;;;;;;;0.40;0.40;;;2.20;94.50;;;;;;4429274;32;20064;-58
2021/04/26 03:29:06;;;;;;;0.40;0.40;;;2.10;95.40;;;;;;4417590;32;20111;-61
2021/04/26 03:31:34;;;;;;;0.40;0.40;;;2.00;95.40;;;;;;4430570;32;20396;-59
2021/04/26 03:34:01;;;;;;;0.30;0.30;;;2.00;96.30;;;;;;4417611;32;20100;-58
2021/04/26 03:36:27;;;;;;;0.30;0.30;;;2.00;96.40;;;;;;4415834;32;20560;-58
2021/04/26 03:38:53;;;;;;;0.30;0.30;;;1.90;96.70;;;;;;4417130;32;20061;-59
2021/04/26 03:41:19;;;;;;;1.08;0.98;;;1.80;97.40;;;;;;4390280;32;20569;-59
2021/04/26 03:43:45;;;;;;;0.30;0.30;;;1.60;97.80;;;;;;4402451;32;20058;-58
2021/04/26 03:46:10;;;;;;;0.40;0.40;;;1.60;97.90;;;;;;4417659;32;20077;-60
2021/04/26 03:48:36;;;;;;;0.50;0.37;;;1.60;98.10;;;;;;4416850;32;20074;-57
2021/04/26 03:51:02;;;;;;;0.37;0.37;;;1.80;97.60;;;;;;4415851;32;20069;-58
2021/04/26 03:53:27;;;;;;;10.98;2.45;;;1.70;97.90;;;;;;4403250;32;20109;-58
2021/04/26 03:55:53;;;;;;;0.20;0.20;;;1.60;98.20;;;;;;4415524;32;20065;-55
2021/04/26 03:58:18;;;;;;;0.55;0.55;;;1.50;98.50;;;;;;4415919;32;20066;-59
2021/04/26 04:00:44;;;;;;;0.20;0.20;;;1.50;98.90;;;;;;4416525;32;20420;-60
2021/04/26 04:03:10;;;;;;;0.60;0.60;;;1.60;98.60;;;;;;4415010;32;20066;-59
2021/04/26 04:05:38;;;;;;;0.30;0.30;;;1.60;98.40;;;;;;4416374;32;20085;-56
2021/04/26 04:08:05;;;;;;;0.30;0.30;;;1.60;98.70;;;;;;4402170;32;20126;-58
2021/04/26 04:10:31;;;;;;;0.35;0.35;;;1.50;98.70;;;;;;4405537;32;20077;-58
2021/04/26 04:12:57;;;;;;;0.50;0.50;;;1.50;99.20;;;;;;4417669;32;20120;-59
2021/04/26 04:15:22;;;;;;;0.20;0.20;;;1.60;99.00;;;;;;4431836;32;20080;-58
2021/04/26 04:17:48;;;;;;;1.00;0.88;;;1.70;98.90;;;;;;4430468;32;20057;-59
2021/04/26 04:20:13;;;;;;;0.35;0.35;;;1.70;98.70;;;;;;4416877;32;20259;-60
2021/04/26 04:22:39;;;;;;;0.50;0.50;;;1.90;98.60;;;;;;4421494;32;20073;-59
2021/04/26 04:25:07;;;;;;;0.30;0.30;;;2.00;98.00;;;;;;4402632;32;20531;-59
2021/04/26 04:27:33;;;;;;;0.30;0.30;;;2.10;97.70;;;;;;4415199;32;20112;-60
2021/04/26 04:29:58;;;;;;;0.20;0.20;;;2.30;96.60;;;;;;4413280;32;20069;-58
2021/04/26 04:32:24;;;;;;;0.35;0.35;;;2.30;96.60;;;;;;4424260;32;20102;-60
2021/04/26 04:34:49;;;;;;;0.30;0.30;;;2.20;96.70;;;;;;4429740;32;20089;-57
2021/04/26 04:37:15;;;;;;;0.30;0.30;;;2.20;96.80;;;;;;4431208;32;20080;-59
2021/04/26 04:39:40;;;;;;;0.30;0.30;;;2.30;96.70;;;;;;4431144;32;20089;-58
2021/04/26 04:42:06;;;;;;;0.40;0.40;;;2.40;96.70;;;;;;4417528;32;20340;-60
2021/04/26 04:44:31;;;;;;;0.30;0.30;;;2.40;96.80;;;;;;4430536;32;20134;-60
2021/04/26 04:46:57;;;;;;;0.30;0.30;;;2.40;97.20;;;;;;4430442;32;20062;-59
2021/04/26 04:49:22;;;;;;;0.60;0.40;;;2.40;97.10;;;;;;4430336;32;20081;-56
2021/04/26 04:51:48;;;;;;;0.20;0.20;;;2.30;97.50;;;;;;4429462;32;20085;-59
2021/04/26 04:54:14;;;;;;;0.30;0.30;;;2.40;97.30;;;;;;4430814;32;20130;-58
2021/04/26 04:56:39;;;;;;;0.37;0.37;;;2.50;97.40;;;;;;4429254;32;20130;-58
2021/04/26 04:59:06;;;;;;;0.40;0.40;;;2.50;97.60;;;;;;4420689;32;20501;-60
2021/04/26 05:01:32;;;;;;;0.70;0.70;;;2.50;97.50;;;;;;4385039;32;20268;-60
2021/04/26 05:03:58;;;;;;;0.30;0.30;;;2.60;97.20;;;;;;4419793;32;20093;-58
2021/04/26 05:06:23;;;;;;;0.30;0.30;;;2.80;97.00;;;;;;4431600;32;20065;-60
2021/04/26 05:08:49;;;;;;;0.30;0.30;;;2.90;96.70;;;;;;4427528;32;20078;-58
2021/04/26 05:11:15;;;;;;;1.15;0.70;;;2.90;96.50;;;;;;4425540;32;20080;-58
2021/04/26 05:13:41;;;;;;;0.30;0.30;;;3.00;96.40;;;;;;4426858;32;20134;-58
2021/04/26 05:16:06;;;;;;;0.35;0.35;;;3.20;96.30;;;;;;4412745;32;20072;-58
2021/04/26 05:18:32;;;;;;;0.40;0.40;;;3.30;96.10;;;;;;4394039;32;20152;-57
2021/04/26 05:20:58;;;;;;;0.30;0.30;;;3.20;96.30;;;;;;4409925;32;20128;-59
2021/04/26 05:23:23;;;;;;;0.37;0.37;;;3.20;96.50;;;;;;4425561;32;20489;-60
2021/04/26 05:25:50;;;;;;;0.30;0.30;;;3.30;96.30;;;;;;4425243;32;20089;-60
2021/04/26 05:28:16;;;;;;;0.40;0.40;;;3.30;96.80;;;;;;4395052;32;20728;-60
2021/04/26 05:30:42;;;;;;;0.40;0.40;;;3.30;97.10;;;;;;4412461;32;20082;-60
2021/04/26 05:33:07;;;;;;;0.35;0.35;;;3.20;96.80;;;;;;4398464;32;20081;-60
2021/04/26 05:35:33;;;;;;;0.35;0.35;;;3.30;97.10;;;;;;4422167;32;20563;-60
2021/04/26 05:38:16;;;;;;;0.47;0.47;;;3.40;97.00;;;;;;4425463;32;20160;-60
2021/04/26 05:40:43;;;;;;;0.30;0.30;;;3.50;96.80;;;;;;4423800;32;20383;-59
2021/04/26 05:43:09;;;;;;;0.30;0.30;;;3.70;96.70;;;;;;4424351;32;20077;-60
2021/04/26 05:45:35;;;;;;;0.30;0.30;;;3.80;96.30;;;;;;4409056;32;20086;-60
2021/04/26 05:48:01;;;;;;;0.40;0.40;;;3.90;96.40;;;;;;4405655;32;20741;-59
2021/04/26 05:50:27;;;;;;;0.85;0.85;;;4.00;96.10;;;;;;4409271;32;20070;-60
2021/04/26 05:52:54;;;;;;;0.30;0.30;;;4.00;96.20;;;;;;4426015;32;20073;-60
2021/04/26 05:55:20;;;;;;;0.30;0.30;;;4.00;96.20;;;;;;4423352;32;20086;-58
2021/04/26 05:57:46;;;;;;;0.37;0.37;;;4.20;95.30;;;;;;4424808;32;20398;-60
2021/04/26 06:00:11;;;;;;;1.02;0.55;;;4.30;95.40;;;;;;4423713;32;20065;-60
2021/04/26 06:02:37;;;;;;;0.37;0.37;;;4.40;95.80;;;;;;4410010;32;20089;-59
2021/04/26 06:05:03;;;;;;;0.30;0.30;;;4.50;96.20;;;;;;4421871;32;20077;-60
2021/04/26 06:07:28;;;;;;;0.30;0.30;;;4.60;95.60;;;;;;4425127;32;20112;-59
2021/04/26 06:09:54;;;;;;;0.35;0.35;;;4.70;95.50;;;;;;4433795;32;20507;-60
2021/04/26 06:12:19;;;;;;;0.45;0.45;;;4.80;95.20;;;;;;4425787;32;20130;-59
2021/04/26 06:14:46;;;;;;;0.60;0.60;;;4.90;95.10;;;;;;4421192;32;20089;-59
2021/04/26 06:17:11;;;;;;;0.37;0.37;;;4.90;95.30;;;;;;4419658;32;20092;-58
2021/04/26 06:19:37;;;;;;;4.75;0.80;;;5.00;95.00;;;;;;4421816;32;20538;-58
2021/04/26 06:22:02;;;;;;;0.30;0.30;;;5.20;94.90;;;;;;4421082;32;20065;-59
2021/04/26 06:24:28;;;;;;;0.50;0.50;;;5.40;94.70;;;;;;4403827;32;20076;-59
2021/04/26 06:26:53;;;;;;;0.30;0.30;;;5.50;95.00;;;;;;4424657;32;20077;-59
2021/04/26 06:29:19;;;;;;;0.47;0.47;;;5.60;94.60;;;;;;4426283;32;20107;-60
2021/04/26 06:31:44;;;;;;;0.20;0.20;;;5.70;94.20;;;;;;4421612;32;20085;-59
2021/04/26 06:34:10;;;;;;;0.40;0.40;;;5.80;93.90;;;;;;4407486;32;20057;-59
2021/04/26 06:36:35;;;;;;;0.30;0.30;;;5.90;94.20;;;;;;4426983;32;20124;-60
2021/04/26 06:39:02;;;;;;;1.12;0.52;;;5.90;94.40;;;;;;4425701;32;20065;-61
2021/04/26 06:41:28;;;;;;;0.30;0.30;;;6.00;94.50;;;;;;4425525;32;20064;-61
2021/04/26 06:43:53;;;;;;;0.50;0.50;;;6.20;94.10;;;;;;4424259;32;20077;-60
2021/04/26 06:46:19;;;;;;;0.40;0.40;;;6.30;93.60;;;;;;4425737;32;20124;-61
2021/04/26 06:48:45;;;;;;;0.60;0.60;;;6.50;93.30;;;;;;4426927;32;20065;-61
2021/04/26 06:51:11;;;;;;;0.45;0.45;;;6.50;93.30;;;;;;4411095;32;20106;-60
2021/04/26 06:53:36;;;;;;;0.30;0.30;;;6.50;92.90;;;;;;4424684;32;20053;-60
2021/04/26 06:56:02;;;;;;;0.30;0.30;;;6.50;92.70;;;;;;4420774;32;20182;-60
2021/04/26 06:58:28;;;;;;;0.50;0.50;;;6.60;93.00;;;;;;4425998;32;20090;-60
2021/04/26 07:00:54;;;;;;;0.30;0.30;;;6.60;92.10;;;;;;4425299;32;20086;-60
2021/04/26 07:03:21;;;;;;;0.30;0.30;;;6.70;92.10;;;;;;4412515;32;20070;-59
2021/04/26 07:05:46;;;;;;;0.62;0.62;;;6.80;92.10;;;;;;4421591;32;20074;-60
2021/04/26 07:08:12;;;;;;;0.35;0.35;;;6.80;91.70;;;;;;4429058;32;20629;-61
2021/04/26 07:10:37;;;;;;;0.30;0.30;;;7.00;91.20;;;;;;4420575;32;20073;-57
2021/04/26 07:13:02;;;;;;;0.30;0.30;;;7.00;90.90;;;;;;4414030;32;20758;-60
2021/04/26 07:15:28;;;;;;;0.30;0.30;;;7.20;91.30;;;;;;4417554;32;20125;-60
2021/04/26 07:17:54;;;;;;;0.30;0.30;;;7.20;90.20;;;;;;4420752;32;20069;-62
2021/04/26 07:20:19;;;;;;;0.30;0.30;;;7.20;90.10;;;;;;4420801;32;20080;-62
2021/04/26 07:22:46;;;;;;;0.45;0.45;;;7.20;89.20;;;;;;4422133;32;20061;-61
2021/04/26 07:25:12;;;;;;;0.30;0.30;;;7.30;89.30;;;;;;4420571;32;20073;-62
2021/04/26 07:27:38;;;;;;;0.30;0.30;;;7.30;86.80;;;;;;4420779;32;20065;-61
2021/04/26 07:30:05;;;;;;;0.40;0.40;;;7.40;84.80;;;;;;4421765;32;20069;-62
2021/04/26 07:32:31;;;;;;;0.28;0.28;;;7.50;85.10;;;;;;4416918;32;20123;-62
2021/04/26 07:34:56;;;;;;;0.40;0.40;;;7.60;84.80;;;;;;4424582;32;20057;-61
2021/04/26 07:37:22;;;;;;;0.30;0.30;;;7.80;84.20;;;;;;4418375;32;20058;-62
2021/04/26 07:39:48;;;;;;;0.40;0.40;;;7.90;81.30;;;;;;4419050;32;20081;-62
2021/04/26 07:42:14;;;;;;;5.28;0.50;;;7.90;80.60;;;;;;4418772;32;20580;-61
2021/04/26 07:44:39;;;;;;;0.30;0.30;;;8.00;79.70;;;;;;4422789;32;20077;-61
2021/04/26 07:47:06;;;;;;;0.30;0.30;;;8.00;80.20;;;;;;4403687;32;20519;-62
2021/04/26 07:49:32;;;;;;;1.12;0.37;;;8.10;78.50;;;;;;4419385;32;20448;-63
2021/04/26 07:51:57;;;;;;;0.30;0.30;;;8.00;78.90;;;;;;4396879;32;21353;-63
2021/04/26 07:54:24;;;;;;;0.35;0.35;;;8.00;79.60;;;;;;4428220;32;20483;-62
2021/04/26 07:56:49;;;;;;;0.40;0.40;;;8.10;80.20;;;;;;4481480;26;20194;-70
2021/04/26 07:59:15;;;;;;;0.32;0.32;;;8.30;79.50;;;;;;4420082;32;20093;-70
2021/04/26 08:01:40;;;;;;;0.30;0.30;;;8.50;78.30;;;;;;4415840;32;20143;-71
2021/04/26 08:04:06;;;;;;;0.30;0.30;;;8.50;78.10;;;;;;4425874;32;20444;-71
2021/04/26 08:06:32;;;;;;;0.30;0.30;;;8.50;78.60;;;;;;4413322;32;20208;-70
2021/04/26 08:08:57;;;;;;;0.65;0.60;;;8.60;77.40;;;;;;4418051;32;20482;-69
2021/04/26 08:11:23;;;;;;;0.30;0.30;;;8.80;78.30;;;;;;4422767;32;20077;-70
2021/04/26 08:13:49;;;;;;;1.00;0.90;;;8.90;74.40;;;;;;4420102;32;20574;-71
2021/04/26 08:16:14;;;;;;;0.30;0.30;;;9.10;75.90;;;;;;4408518;32;20097;-70
2021/04/26 08:18:39;;;;;;;0.30;0.30;;;9.10;73.80;;;;;;4410566;32;20082;-71
2021/04/26 08:21:05;;;;;;;0.30;0.30;;;9.10;73.90;;;;;;4404183;32;20131;-72
2021/04/26 08:23:31;;;;;;;0.35;0.35;;;9.20;73.80;;;;;;4406833;32;20090;-71
2021/04/26 08:25:56;;;;;;;0.37;0.37;;;9.40;72.20;;;;;;4414223;32;20082;-72
2021/04/26 08:28:22;;;;;;;0.47;0.40;;;9.50;71.20;;;;;;4406701;32;20081;-71
2021/04/26 08:30:49;;;;;;;0.30;0.30;;;9.40;71.20;;;;;;4408383;32;20073;-69
2021/04/26 08:33:15;;;;;;;0.30;0.30;;;9.50;70.50;;;;;;4405713;32;20070;-70
2021/04/26 08:35:41;;;;;;;0.30;0.30;;;9.40;70.70;;;;;;4405906;32;20073;-69
2021/04/26 08:38:06;;;;;;;0.50;0.50;;;9.40;70.30;;;;;;4412209;32;20526;-71
2021/04/26 08:40:32;;;;;;;0.30;0.30;;;9.50;70.70;;;;;;4402741;32;20444;-74
2021/04/26 08:43:03;;;;;;;0.43;0.43;;;9.50;69.60;;;;;;4405227;32;20074;-72
2021/04/26 08:45:28;;;;;;;0.30;0.30;;;9.80;68.60;;;;;;4409767;32;20732;-72
2021/04/26 08:47:54;;;;;;;0.30;0.30;;;9.60;67.70;;;;;;4407322;32;20065;-71
2021/04/26 08:50:20;;;;;;;0.30;0.30;;;9.60;68.20;;;;;;4405999;32;20120;-72
2021/04/26 08:52:46;;;;;;;0.30;0.30;;;9.50;66.50;;;;;;4405249;32;20077;-72
2021/04/26 08:55:12;;;;;;;0.40;0.40;;;9.30;67.40;;;;;;4408692;32;20065;-71
2021/04/26 08:57:37;;;;;;;0.30;0.30;;;9.30;67.90;;;;;;4412102;32;20097;-72
2021/04/26 09:00:05;;;;;;;0.30;0.30;;;9.40;66.90;;;;;;4408519;32;20081;-72
2021/04/26 09:02:43;;;;;;;0.30;0.30;;;9.20;67.20;;;;;;4411653;32;20070;-72
2021/04/26 09:05:23;;;;;;;1.10;0.30;;;9.00;67.90;;;;;;4409889;32;20393;-72
2021/04/26 09:07:51;;;;;;;0.40;0.40;;;9.00;68.40;;;;;;4405993;32;20082;-73
2021/04/26 09:10:16;;;;;;;0.30;0.30;;;8.90;68.40;;;;;;4408205;32;20695;-72
2021/04/26 09:12:42;;;;;;;1.27;0.65;;;8.90;67.50;;;;;;4415570;32;20092;-71
2021/04/26 09:15:08;;;;;;;0.30;0.30;;;8.90;68.50;;;;;;4408324;32;20510;-72
2021/04/26 09:17:39;;;;;;;2.92;0.62;;;8.70;66.00;;;;;;4407672;32;20396;-74
2021/04/26 09:20:22;;;;;;;0.37;0.37;;;8.70;67.20;;;;;;4409910;32;20081;-73
2021/04/26 09:22:52;;;;;;;0.47;0.47;;;8.70;68.40;;;;;;4407038;32;20058;-72
2021/04/26 09:25:20;;;;;;;0.30;0.30;;;8.70;68.50;;;;;;4410714;32;20134;-73
2021/04/26 09:27:51;;;;;;;0.40;0.40;;;8.80;68.30;;;;;;4414180;32;20065;-72
2021/04/26 09:30:34;;;;;;;0.30;0.30;;;9.30;67.30;;;;;;4405300;32;20057;-72
2021/04/26 09:33:32;;;;;;;0.20;0.20;;;9.80;66.50;;;;;;4408149;32;20105;-71
2021/04/26 09:36:03;;;;;;;0.57;0.57;;;10.40;63.60;;;;;;4407297;32;20075;-70
2021/04/26 09:38:32;;;;;;;0.20;0.20;;;11.00;63.00;;;;;;4401968;32;85811;-72
2021/04/26 09:41:07;;;;;;;0.20;0.20;;;11.40;60.10;;;;;;4417132;32;20057;-71
2021/04/26 09:43:33;;;;;;;0.40;0.40;;;11.70;60.50;;;;;;4393294;32;20219;-72
2021/04/26 09:45:59;;;;;;;0.30;0.30;;;12.10;59.60;;;;;;4404754;32;20077;-72
2021/04/26 09:48:26;;;;;;;0.30;0.30;;;12.30;59.80;;;;;;4408276;32;20062;-72
2021/04/26 09:50:58;;;;;;;0.30;0.30;;;12.60;57.30;;;;;;4406242;32;20069;-72
2021/04/26 09:53:27;;;;;;;0.30;0.30;;;12.60;57.10;;;;;;4411437;32;20054;-71
2021/04/26 09:55:55;;;;;;;0.30;0.30;;;13.00;55.30;;;;;;4407361;32;20120;-71
2021/04/26 09:58:21;;;;;;;8.20;1.55;;;12.90;53.50;;;;;;4409657;32;20066;-71
2021/04/26 10:00:47;;;;;;;0.30;0.30;;;12.60;54.80;;;;;;4402224;32;20064;-72
2021/04/26 10:03:14;;;;;;;0.30;0.30;;;12.30;56.00;;;;;;4409513;32;20366;-71
2021/04/26 10:05:42;;;;;;;0.30;0.30;;;11.90;56.20;;;;;;4407029;32;20061;-71
2021/04/26 10:08:10;;;;;;;0.57;0.57;;;12.10;57.80;;;;;;4419338;32;20546;-71
2021/04/26 10:10:35;;;;;;;0.45;0.45;;;12.10;56.20;;;;;;4408474;32;20066;-74
2021/04/26 10:13:01;;;;;;;0.30;0.30;;;11.70;56.60;;;;;;4412035;32;20119;-72
2021/04/26 10:15:27;;;;;;;0.30;0.30;;;11.60;57.30;;;;;;4407686;32;20145;-72
2021/04/26 10:17:54;;;;;;;0.35;0.35;;;11.40;59.10;;;;;;4406648;32;20481;-73
2021/04/26 10:20:38;;;;;;;3.20;1.58;;;11.40;58.20;;;;;;4405144;32;20134;-73
2021/04/26 10:23:05;;;;;;;0.40;0.40;;;11.30;58.70;;;;;;4405931;32;20113;-73
2021/04/26 10:25:40;;;;;;;0.30;0.30;;;11.20;59.20;;;;;;4411711;32;20105;-73
2021/04/26 10:28:27;;;;;;;0.40;0.40;;;11.10;58.40;;;;;;4415077;32;20059;-73
2021/04/26 10:31:03;;;;;;;0.40;0.40;;;10.80;59.20;;;;;;4394272;32;20102;-73
2021/04/26 10:33:58;;;;;;;0.30;0.30;;;10.60;59.40;;;;;;4405317;32;20508;-71
2021/04/26 10:36:42;;;;;;;0.30;0.30;;;10.60;59.60;;;;;;4402154;32;20066;-73
2021/04/26 10:39:09;;;;;;;0.50;0.50;;;10.70;61.20;;;;;;4411078;32;20083;-72
2021/04/26 10:41:57;;;;;;;0.40;0.40;;;10.80;60.50;;;;;;4410732;32;20137;-73
2021/04/26 10:44:41;;;;;;;1.62;0.60;;;10.80;59.50;;;;;;4395266;32;20082;-72
2021/04/26 10:47:23;;;;;;;33.10;2.80;;;10.80;60.40;;;;;;4406879;32;20447;-72
2021/04/26 10:49:52;;;;;;;1.77;0.80;;;10.80;59.10;;;;;;4395962;32;20062;-73
2021/04/26 10:52:40;;;;;;;0.30;0.30;;;11.00;60.10;;;;;;4404905;32;20101;-72
2021/04/26 10:55:10;;;;;;;0.30;0.30;;;11.40;60.90;;;;;;4392939;32;20094;-73
2021/04/26 10:57:42;;;;;;;0.40;0.40;;;11.90;59.80;;;;;;4413455;32;20078;-71
2021/04/26 11:02:58;;;;;;;0.60;0.60;;;11.90;58.20;;;;;;4394509;32;20065;-72
2021/04/26 11:05:27;;;;;;;0.30;0.30;;;11.90;58.90;;;;;;4408902;32;20085;-72
2021/04/26 11:07:58;;;;;;;0.30;0.30;;;11.90;58.70;;;;;;4403626;32;20077;-72
2021/04/26 11:10:30;;;;;;;0.30;0.30;;;11.70;58.10;;;;;;4411294;32;20165;-72
2021/04/26 11:12:57;;;;;;;2.12;1.20;;;11.60;58.60;;;;;;4410104;32;20120;-71
2021/04/26 11:15:23;;;;;;;0.30;0.30;;;11.40;58.60;;;;;;4403926;32;20440;-71
2021/04/26 11:17:50;;;;;;;4.03;1.65;;;11.40;59.80;;;;;;4408015;32;20527;-71
2021/04/26 11:20:19;;;;;;;0.65;0.65;;;11.50;59.70;;;;;;4406565;32;20498;-71
2021/04/26 11:22:45;;;;;;;0.30;0.30;;;11.60;59.50;;;;;;4409559;32;20102;-72
2021/04/26 11:25:34;;;;;;;0.35;0.35;;;11.70;60.20;;;;;;4405664;32;20074;-71
2021/04/26 11:28:01;;;;;;;0.40;0.40;;;11.40;59.60;;;;;;4409208;32;20086;-71
2021/04/26 11:30:32;;;;;;;0.40;0.40;;;11.60;59.20;;;;;;4407033;32;20094;-71
2021/04/26 11:33:15;;;;;;;0.40;0.40;;;11.50;58.90;;;;;;4412116;32;20704;-71
2021/04/26 11:36:09;;;;;;;0.40;0.40;;;11.70;59.40;;;;;;4408396;32;20061;-71
2021/04/26 11:38:36;;;;;;;0.32;0.30;;;11.70;59.50;;;;;;4398622;32;20565;-72
2021/04/26 11:41:02;;;;;;;0.57;0.57;;;12.40;59.40;;;;;;4408268;32;20065;-72
2021/04/26 11:43:28;;;;;;;0.30;0.30;;;13.40;56.00;;;;;;4404444;32;20159;-72
2021/04/26 11:45:54;;;;;;;0.50;0.50;;;14.00;55.90;;;;;;4401794;32;20093;-71
2021/04/26 11:48:22;;;;;;;0.20;0.20;;;14.70;54.70;;;;;;4407726;32;20522;-72
2021/04/26 11:50:47;;;;;;;0.40;0.40;;;14.80;53.50;;;;;;4403436;32;20193;-71
2021/04/26 11:53:23;;;;;;;0.40;0.40;;;14.30;53.20;;;;;;4399702;32;20404;-71
2021/04/26 11:55:49;;;;;;;8.35;0.60;;;13.80;54.10;;;;;;4413912;32;20133;-72
2021/04/26 11:58:23;;;;;;;0.77;0.40;;;13.00;55.80;;;;;;4407941;32;20116;-72
2021/04/26 12:00:48;;;;;;;0.32;0.32;;;12.70;56.10;;;;;;4407270;32;20151;-71
2021/04/26 12:03:14;;;;;;;0.20;0.20;;;12.30;57.30;;;;;;4407257;32;20369;-72
2021/04/26 12:05:39;;;;;;;0.30;0.30;;;11.90;56.00;;;;;;4401498;32;20090;-71
2021/04/26 12:08:05;;;;;;;0.40;0.40;;;11.60;57.10;;;;;;4409152;32;21283;-71
2021/04/26 12:10:39;;;;;;;0.65;0.65;;;11.60;57.60;;;;;;4411038;32;20174;-71
2021/04/26 12:13:05;;;;;;;0.25;0.25;;;11.60;57.60;;;;;;4410169;32;20470;-71
2021/04/26 12:15:32;;;;;;;0.30;0.30;;;11.50;57.50;;;;;;4410542;32;20340;-71
2021/04/26 12:17:59;;;;;;;0.22;0.22;;;11.30;57.70;;;;;;4406068;32;20137;-70
2021/04/26 12:20:28;;;;;;;28.27;0.57;;;11.10;57.80;;;;;;4411403;32;20549;-73
2021/04/26 12:22:58;;;;;;;3.47;1.17;;;11.00;57.70;;;;;;4408189;32;20184;-71
2021/04/26 12:25:27;;;;;;;0.30;0.30;;;10.90;58.20;;;;;;4406594;32;20066;-72
2021/04/26 12:28:03;;;;;;;1.17;0.88;;;10.80;59.70;;;;;;4408152;32;20452;-72
2021/04/26 12:30:34;;;;;;;0.40;0.40;;;10.90;59.50;;;;;;4410204;32;20539;-72
2021/04/26 12:32:59;;;;;;;0.30;0.30;;;11.10;60.30;;;;;;4407325;32;20089;-72
2021/04/26 12:35:28;;;;;;;0.40;0.40;;;11.10;58.90;;;;;;4407154;32;20140;-71
2021/04/26 12:37:56;;;;;;;0.30;0.30;;;11.20;58.20;;;;;;4409664;32;20094;-72
2021/04/26 12:40:26;;;;;;;0.30;0.30;;;11.40;58.00;;;;;;4410303;32;20129;-72
2021/04/26 12:42:58;;;;;;;0.40;0.40;;;11.60;58.00;;;;;;4412802;32;20069;-72
2021/04/26 12:45:27;;;;;;;0.40;0.40;;;12.00;56.30;;;;;;4410041;32;20099;-73
2021/04/26 12:47:58;;;;;;;0.30;0.30;;;12.40;57.70;;;;;;4411668;32;20080;-72
2021/04/26 12:50:45;;;;;;;2.10;0.30;;;12.70;57.10;;;;;;4406727;32;20077;-72
2021/04/26 12:53:28;;;;;;;0.20;0.20;;;13.10;55.20;;;;;;4395803;32;20124;-72
2021/04/26 12:56:11;;;;;;;0.20;0.20;;;12.70;53.60;;;;;;4408894;32;20086;-72
2021/04/26 12:58:38;;;;;;;0.30;0.30;;;12.10;55.50;;;;;;4410654;32;20085;-73
2021/04/26 13:01:18;;;;;;;0.60;0.60;;;11.90;55.60;;;;;;4412712;32;20130;-72
2021/04/26 13:03:54;;;;;;;0.30;0.30;;;11.60;55.50;;;;;;4421892;32;20077;-73